sensor_id;sensor_type;location;lat;lon;timestamp;P1;P2;P0
41382;PMS5003;27971;53.902;9.118;2023-02-13T00:05:05;9.43;7.94;
41382;PMS5003;27971;53.902;9.118;2023-02-13T00:07:08;8.95;6.68;
41382;PMS5003;27971;53.902;9.118;2023-02-13T00:09:11;8.66;7.61;
41382;PMS5003;27971;53.902;9.118;2023-02-13T00:11:14;7.61;6.78;
41382;PMS5003;27971;53.902;9.118;2023-02-13T00:13:17;9.06;7.56;
41382;PMS5003;27971;53.902;9.118;2023-02-13T00:15:19;9.23;7.37;
41382;PMS5003;27971;53.902;9.118;2023-02-13T00:17:22;7.86;6.74;
41382;PMS5003;27971;53.902;9.118;2023-02-13T00:19:24;8.69;7.53;
41382;PMS5003;27971;53.902;9.118;2023-02-13T00:21:26;7.24;6.34;
41382;PMS5003;27971;53.902;9.118;2023-02-13T00:23:29;8.19;6.4;
41382;PMS5003;27971;53.902;9.118;2023-02-13T00:25:32;6.91;6.16;
41382;PMS5003;27971;53.902;9.118;2023-02-13T00:27:34;8.54;6.98;
41382;PMS5003;27971;53.902;9.118;2023-02-13T00:29:37;7.37;6.1;
41382;PMS5003;27971;53.902;9.118;2023-02-13T00:31:39;7.79;6.89;
41382;PMS5003;27971;53.902;9.118;2023-02-13T00:33:41;9.04;8.26;
41382;PMS5003;27971;53.902;9.118;2023-02-13T00:35:44;7.8;7.27;
41382;PMS5003;27971;53.902;9.118;2023-02-13T00:37:47;7.23;6.32;
41382;PMS5003;27971;53.902;9.118;2023-02-13T00:39:49;9.66;8.38;
41382;PMS5003;27971;53.902;9.118;2023-02-13T00:41:51;7.92;6.4;
41382;PMS5003;27971;53.902;9.118;2023-02-13T00:43:53;9.31;6.89;
41382;PMS5003;27971;53.902;9.118;2023-02-13T00:45:56;7.56;6.39;
41382;PMS5003;27971;53.902;9.118;2023-02-13T00:47:58;8.23;7.26;
41382;PMS5003;27971;53.902;9.118;2023-02-13T00:50:00;8.1;5.9;
41382;PMS5003;27971;53.902;9.118;2023-02-13T00:52:03;9.11;7.58;
41382;PMS5003;27971;53.902;9.118;2023-02-13T00:54:05;8.3;7.24;
41382;PMS5003;27971;53.902;9.118;2023-02-13T00:56:08;6.37;5.92;
41382;PMS5003;27971;53.902;9.118;2023-02-13T00:58:10;8.47;6.89;
41382;PMS5003;27971;53.902;9.118;2023-02-13T01:00:13;9.13;6.97;
41382;PMS5003;27971;53.902;9.118;2023-02-13T01:02:16;8.42;6.73;
41382;PMS5003;27971;53.902;9.118;2023-02-13T01:04:18;8.4;5.74;
41382;PMS5003;27971;53.902;9.118;2023-02-13T01:06:21;8.71;7.13;
41382;PMS5003;27971;53.902;9.118;2023-02-13T01:08:24;6.21;5.48;
41382;PMS5003;27971;53.902;9.118;2023-02-13T01:10:27;8.87;7.03;
41382;PMS5003;27971;53.902;9.118;2023-02-13T01:12:37;6.83;5.97;
41382;PMS5003;27971;53.902;9.118;2023-02-13T01:14:32;8.5;6.2;
41382;PMS5003;27971;53.902;9.118;2023-02-13T01:16:35;7.74;5.72;
41382;PMS5003;27971;53.902;9.118;2023-02-13T01:18:39;8.23;6.47;
41382;PMS5003;27971;53.902;9.118;2023-02-13T01:20:41;7.38;5.61;
41382;PMS5003;27971;53.902;9.118;2023-02-13T01:22:44;8.76;7.02;
41382;PMS5003;27971;53.902;9.118;2023-02-13T01:24:47;8.73;6.34;
41382;PMS5003;27971;53.902;9.118;2023-02-13T01:26:49;7.9;6.69;
41382;PMS5003;27971;53.902;9.118;2023-02-13T01:28:52;7.71;7.04;
41382;PMS5003;27971;53.902;9.118;2023-02-13T01:30:55;6.66;6.02;
41382;PMS5003;27971;53.902;9.118;2023-02-13T01:32:57;7.25;6.28;
41382;PMS5003;27971;53.902;9.118;2023-02-13T01:35:00;7.59;6.16;
41382;PMS5003;27971;53.902;9.118;2023-02-13T01:37:02;7.2;5.33;
41382;PMS5003;27971;53.902;9.118;2023-02-13T01:39:04;6.26;5.42;
41382;PMS5003;27971;53.902;9.118;2023-02-13T01:41:07;9.23;6.17;
41382;PMS5003;27971;53.902;9.118;2023-02-13T01:43:10;7.47;6.5;
41382;PMS5003;27971;53.902;9.118;2023-02-13T01:45:19;6.53;6.07;
41382;PMS5003;27971;53.902;9.118;2023-02-13T01:47:17;7.17;6.43;
41382;PMS5003;27971;53.902;9.118;2023-02-13T01:49:20;7.52;6.18;
41382;PMS5003;27971;53.902;9.118;2023-02-13T01:51:24;7.28;6.38;
41382;PMS5003;27971;53.902;9.118;2023-02-13T01:53:26;8.14;6.59;
41382;PMS5003;27971;53.902;9.118;2023-02-13T01:55:29;9.52;8.1;
41382;PMS5003;27971;53.902;9.118;2023-02-13T01:57:31;7.58;6.66;
41382;PMS5003;27971;53.902;9.118;2023-02-13T01:59:36;8.88;7.4;
41382;PMS5003;27971;53.902;9.118;2023-02-13T02:01:37;7.03;6.45;
41382;PMS5003;27971;53.902;9.118;2023-02-13T02:03:40;9.44;7.52;
41382;PMS5003;27971;53.902;9.118;2023-02-13T02:05:42;8.8;6.83;
41382;PMS5003;27971;53.902;9.118;2023-02-13T02:07:45;9.01;7.34;
41382;PMS5003;27971;53.902;9.118;2023-02-13T02:09:49;5.88;5.68;
41382;PMS5003;27971;53.902;9.118;2023-02-13T02:11:52;6.95;6.03;
41382;PMS5003;27971;53.902;9.118;2023-02-13T02:13:53;7.62;6.27;
41382;PMS5003;27971;53.902;9.118;2023-02-13T02:15:56;6.06;5.5;
41382;PMS5003;27971;53.902;9.118;2023-02-13T02:17:58;8.3;6.69;
41382;PMS5003;27971;53.902;9.118;2023-02-13T02:20:06;6.59;6.07;
41382;PMS5003;27971;53.902;9.118;2023-02-13T02:22:42;7.68;6.1;
41382;PMS5003;27971;53.902;9.118;2023-02-13T02:24:15;5.42;5.02;
41382;PMS5003;27971;53.902;9.118;2023-02-13T02:26:16;7.61;6.71;
41382;PMS5003;27971;53.902;9.118;2023-02-13T02:28:17;6.03;5.1;
41382;PMS5003;27971;53.902;9.118;2023-02-13T02:30:28;5.94;4.84;
41382;PMS5003;27971;53.902;9.118;2023-02-13T02:32:22;7.2;5.9;
41382;PMS5003;27971;53.902;9.118;2023-02-13T02:34:23;7.63;5.84;
41382;PMS5003;27971;53.902;9.118;2023-02-13T02:36:28;7.11;6.21;
41382;PMS5003;27971;53.902;9.118;2023-02-13T02:38:33;6.92;6.08;
41382;PMS5003;27971;53.902;9.118;2023-02-13T02:40:32;7.64;6.47;
41382;PMS5003;27971;53.902;9.118;2023-02-13T02:42:35;6.62;5.73;
41382;PMS5003;27971;53.902;9.118;2023-02-13T02:44:39;6.63;5.84;
41382;PMS5003;27971;53.902;9.118;2023-02-13T02:46:43;6.68;5.69;
41382;PMS5003;27971;53.902;9.118;2023-02-13T02:48:43;6.32;5.36;
41382;PMS5003;27971;53.902;9.118;2023-02-13T02:50:47;7.02;6.08;
41382;PMS5003;27971;53.902;9.118;2023-02-13T02:52:53;6.36;5.12;
41382;PMS5003;27971;53.902;9.118;2023-02-13T02:54:52;4.87;4.57;
41382;PMS5003;27971;53.902;9.118;2023-02-13T02:56:55;6.6;5.71;
41382;PMS5003;27971;53.902;9.118;2023-02-13T02:58:59;6.13;4.76;
41382;PMS5003;27971;53.902;9.118;2023-02-13T03:01:00;5.42;4.74;
41382;PMS5003;27971;53.902;9.118;2023-02-13T03:03:03;6.09;5.7;
41382;PMS5003;27971;53.902;9.118;2023-02-13T03:05:07;7.49;6.23;
41382;PMS5003;27971;53.902;9.118;2023-02-13T03:07:08;5.2;4.87;
41382;PMS5003;27971;53.902;9.118;2023-02-13T03:09:12;6.34;5.37;
41382;PMS5003;27971;53.902;9.118;2023-02-13T03:11:14;6.47;5.55;
41382;PMS5003;27971;53.902;9.118;2023-02-13T03:13:27;5.33;5.23;
41382;PMS5003;27971;53.902;9.118;2023-02-13T03:15:20;6.58;5.71;
41382;PMS5003;27971;53.902;9.118;2023-02-13T03:17:23;6.71;6.17;
41382;PMS5003;27971;53.902;9.118;2023-02-13T03:19:31;5.96;5.56;
41382;PMS5003;27971;53.902;9.118;2023-02-13T03:21:33;4.91;4.49;
41382;PMS5003;27971;53.902;9.118;2023-02-13T03:23:34;5.28;4.99;
41382;PMS5003;27971;53.902;9.118;2023-02-13T03:25:35;7.04;6.07;
41382;PMS5003;27971;53.902;9.118;2023-02-13T03:27:41;7.7;6.37;
41382;PMS5003;27971;53.902;9.118;2023-02-13T03:29:43;7.29;6.16;
41382;PMS5003;27971;53.902;9.118;2023-02-13T03:31:46;7.28;5.88;
41382;PMS5003;27971;53.902;9.118;2023-02-13T03:33:51;7.2;6.35;
41382;PMS5003;27971;53.902;9.118;2023-02-13T03:35:51;6.4;5.56;
41382;PMS5003;27971;53.902;9.118;2023-02-13T03:37:54;6.49;6.12;
41382;PMS5003;27971;53.902;9.118;2023-02-13T03:39:56;3.7;3.38;
41382;PMS5003;27971;53.902;9.118;2023-02-13T03:41:59;6.44;5.21;
41382;PMS5003;27971;53.902;9.118;2023-02-13T03:44:03;7.24;6.48;
41382;PMS5003;27971;53.902;9.118;2023-02-13T03:46:04;6.34;5.05;
41382;PMS5003;27971;53.902;9.118;2023-02-13T03:48:07;5.54;5.15;
41382;PMS5003;27971;53.902;9.118;2023-02-13T03:50:10;5.81;5.49;
41382;PMS5003;27971;53.902;9.118;2023-02-13T03:52:12;7.37;5.62;
41382;PMS5003;27971;53.902;9.118;2023-02-13T03:54:16;7.11;6.07;
41382;PMS5003;27971;53.902;9.118;2023-02-13T03:56:18;5.71;4.64;
41382;PMS5003;27971;53.902;9.118;2023-02-13T03:58:21;6.35;5.81;
41382;PMS5003;27971;53.902;9.118;2023-02-13T04:00:24;5.53;4.84;
41382;PMS5003;27971;53.902;9.118;2023-02-13T04:02:27;5.27;4.83;
41382;PMS5003;27971;53.902;9.118;2023-02-13T04:04:31;7.42;6.21;
41382;PMS5003;27971;53.902;9.118;2023-02-13T04:06:31;6.07;4.49;
41382;PMS5003;27971;53.902;9.118;2023-02-13T04:08:33;5.24;5.0;
41382;PMS5003;27971;53.902;9.118;2023-02-13T04:10:36;6.16;5.43;
41382;PMS5003;27971;53.902;9.118;2023-02-13T04:12:40;6.3;4.68;
41382;PMS5003;27971;53.902;9.118;2023-02-13T04:14:42;4.62;3.74;
41382;PMS5003;27971;53.902;9.118;2023-02-13T04:16:44;5.81;5.13;
41382;PMS5003;27971;53.902;9.118;2023-02-13T04:18:47;5.7;4.51;
41382;PMS5003;27971;53.902;9.118;2023-02-13T04:20:49;5.29;4.38;
41382;PMS5003;27971;53.902;9.118;2023-02-13T04:22:52;7.56;5.42;
41382;PMS5003;27971;53.902;9.118;2023-02-13T04:24:54;6.53;5.7;
41382;PMS5003;27971;53.902;9.118;2023-02-13T04:26:57;6.27;5.03;
41382;PMS5003;27971;53.902;9.118;2023-02-13T04:29:00;7.48;5.51;
41382;PMS5003;27971;53.902;9.118;2023-02-13T04:31:02;5.97;5.11;
41382;PMS5003;27971;53.902;9.118;2023-02-13T04:33:05;5.67;5.07;
41382;PMS5003;27971;53.902;9.118;2023-02-13T04:35:07;5.12;5.11;
41382;PMS5003;27971;53.902;9.118;2023-02-13T04:37:10;4.8;4.11;
41382;PMS5003;27971;53.902;9.118;2023-02-13T04:39:12;4.21;3.64;
41382;PMS5003;27971;53.902;9.118;2023-02-13T04:41:15;6.18;5.94;
41382;PMS5003;27971;53.902;9.118;2023-02-13T04:43:17;5.94;5.14;
41382;PMS5003;27971;53.902;9.118;2023-02-13T04:45:19;4.36;4.18;
41382;PMS5003;27971;53.902;9.118;2023-02-13T04:47:22;5.46;4.53;
41382;PMS5003;27971;53.902;9.118;2023-02-13T04:49:24;6.02;4.76;
41382;PMS5003;27971;53.902;9.118;2023-02-13T04:51:27;6.8;5.51;
41382;PMS5003;27971;53.902;9.118;2023-02-13T04:53:30;5.99;4.44;
41382;PMS5003;27971;53.902;9.118;2023-02-13T04:55:32;6.33;4.92;
41382;PMS5003;27971;53.902;9.118;2023-02-13T04:57:35;6.6;6.06;
41382;PMS5003;27971;53.902;9.118;2023-02-13T04:59:38;5.57;4.73;
41382;PMS5003;27971;53.902;9.118;2023-02-13T05:01:40;6.49;5.76;
41382;PMS5003;27971;53.902;9.118;2023-02-13T05:03:42;6.48;5.54;
41382;PMS5003;27971;53.902;9.118;2023-02-13T05:05:45;4.92;4.42;
41382;PMS5003;27971;53.902;9.118;2023-02-13T05:07:47;5.74;5.11;
41382;PMS5003;27971;53.902;9.118;2023-02-13T05:09:50;5.54;4.53;
41382;PMS5003;27971;53.902;9.118;2023-02-13T05:11:52;4.29;4.09;
41382;PMS5003;27971;53.902;9.118;2023-02-13T05:13:55;4.41;4.31;
41382;PMS5003;27971;53.902;9.118;2023-02-13T05:15:58;6.64;4.33;
41382;PMS5003;27971;53.902;9.118;2023-02-13T05:18:00;4.23;3.9;
41382;PMS5003;27971;53.902;9.118;2023-02-13T05:20:03;5.42;4.76;
41382;PMS5003;27971;53.902;9.118;2023-02-13T05:22:05;5.17;4.78;
41382;PMS5003;27971;53.902;9.118;2023-02-13T05:24:07;5.73;5.0;
41382;PMS5003;27971;53.902;9.118;2023-02-13T05:26:10;7.26;5.17;
41382;PMS5003;27971;53.902;9.118;2023-02-13T05:28:13;4.47;3.82;
41382;PMS5003;27971;53.902;9.118;2023-02-13T05:30:16;4.67;4.24;
41382;PMS5003;27971;53.902;9.118;2023-02-13T05:32:18;5.14;4.27;
41382;PMS5003;27971;53.902;9.118;2023-02-13T05:34:22;4.74;4.4;
41382;PMS5003;27971;53.902;9.118;2023-02-13T05:36:23;7.03;5.98;
41382;PMS5003;27971;53.902;9.118;2023-02-13T05:38:26;5.17;5.03;
41382;PMS5003;27971;53.902;9.118;2023-02-13T05:40:28;5.28;4.71;
41382;PMS5003;27971;53.902;9.118;2023-02-13T05:42:30;5.19;4.86;
41382;PMS5003;27971;53.902;9.118;2023-02-13T05:44:33;5.07;4.53;
41382;PMS5003;27971;53.902;9.118;2023-02-13T05:46:35;6.1;5.43;
41382;PMS5003;27971;53.902;9.118;2023-02-13T05:48:38;4.8;4.27;
41382;PMS5003;27971;53.902;9.118;2023-02-13T05:50:41;4.9;3.83;
41382;PMS5003;27971;53.902;9.118;2023-02-13T05:52:43;5.1;4.43;
41382;PMS5003;27971;53.902;9.118;2023-02-13T05:54:45;4.19;3.51;
41382;PMS5003;27971;53.902;9.118;2023-02-13T05:56:49;4.98;4.34;
41382;PMS5003;27971;53.902;9.118;2023-02-13T05:58:51;5.6;4.57;
41382;PMS5003;27971;53.902;9.118;2023-02-13T06:00:54;5.57;5.03;
41382;PMS5003;27971;53.902;9.118;2023-02-13T06:02:57;4.96;3.79;
41382;PMS5003;27971;53.902;9.118;2023-02-13T06:05:00;4.45;4.08;
41382;PMS5003;27971;53.902;9.118;2023-02-13T06:07:03;4.67;4.6;
41382;PMS5003;27971;53.902;9.118;2023-02-13T06:09:05;4.22;3.92;
41382;PMS5003;27971;53.902;9.118;2023-02-13T06:11:07;4.56;4.06;
41382;PMS5003;27971;53.902;9.118;2023-02-13T06:13:10;6.32;4.72;
41382;PMS5003;27971;53.902;9.118;2023-02-13T06:15:12;4.6;4.03;
41382;PMS5003;27971;53.902;9.118;2023-02-13T06:17:15;5.47;4.27;
41382;PMS5003;27971;53.902;9.118;2023-02-13T06:19:18;5.0;4.37;
41382;PMS5003;27971;53.902;9.118;2023-02-13T06:21:21;4.56;4.46;
41382;PMS5003;27971;53.902;9.118;2023-02-13T06:23:23;4.98;4.58;
41382;PMS5003;27971;53.902;9.118;2023-02-13T06:25:26;4.71;4.44;
41382;PMS5003;27971;53.902;9.118;2023-02-13T06:27:28;4.36;4.36;
41382;PMS5003;27971;53.902;9.118;2023-02-13T06:29:31;5.77;4.8;
41382;PMS5003;27971;53.902;9.118;2023-02-13T06:31:33;4.78;4.47;
41382;PMS5003;27971;53.902;9.118;2023-02-13T06:33:36;5.33;4.98;
41382;PMS5003;27971;53.902;9.118;2023-02-13T06:35:39;3.9;2.98;
41382;PMS5003;27971;53.902;9.118;2023-02-13T06:37:41;4.3;3.91;
41382;PMS5003;27971;53.902;9.118;2023-02-13T06:39:44;4.78;4.49;
41382;PMS5003;27971;53.902;9.118;2023-02-13T06:41:47;5.43;4.66;
41382;PMS5003;27971;53.902;9.118;2023-02-13T06:43:50;5.18;4.22;
41382;PMS5003;27971;53.902;9.118;2023-02-13T06:45:53;4.44;4.31;
41382;PMS5003;27971;53.902;9.118;2023-02-13T06:47:55;5.0;4.54;
41382;PMS5003;27971;53.902;9.118;2023-02-13T06:49:57;4.5;3.49;
41382;PMS5003;27971;53.902;9.118;2023-02-13T06:52:00;5.27;4.02;
41382;PMS5003;27971;53.902;9.118;2023-02-13T06:54:03;4.9;4.53;
41382;PMS5003;27971;53.902;9.118;2023-02-13T06:56:05;4.33;3.71;
41382;PMS5003;27971;53.902;9.118;2023-02-13T06:58:08;4.37;3.66;
41382;PMS5003;27971;53.902;9.118;2023-02-13T07:00:11;5.36;4.1;
41382;PMS5003;27971;53.902;9.118;2023-02-13T07:02:13;4.65;4.1;
41382;PMS5003;27971;53.902;9.118;2023-02-13T07:04:15;4.18;3.62;
41382;PMS5003;27971;53.902;9.118;2023-02-13T07:06:18;4.72;4.26;
41382;PMS5003;27971;53.902;9.118;2023-02-13T07:08:21;5.06;4.33;
41382;PMS5003;27971;53.902;9.118;2023-02-13T07:10:24;3.87;3.46;
41382;PMS5003;27971;53.902;9.118;2023-02-13T07:12:26;4.9;3.92;
41382;PMS5003;27971;53.902;9.118;2023-02-13T07:14:29;4.18;3.96;
41382;PMS5003;27971;53.902;9.118;2023-02-13T07:16:31;5.39;4.51;
41382;PMS5003;27971;53.902;9.118;2023-02-13T07:18:34;5.34;4.96;
41382;PMS5003;27971;53.902;9.118;2023-02-13T07:20:37;5.08;4.04;
41382;PMS5003;27971;53.902;9.118;2023-02-13T07:22:41;4.04;4.04;
41382;PMS5003;27971;53.902;9.118;2023-02-13T07:24:43;4.13;3.67;
41382;PMS5003;27971;53.902;9.118;2023-02-13T07:26:45;4.04;3.36;
41382;PMS5003;27971;53.902;9.118;2023-02-13T07:28:48;4.89;4.01;
41382;PMS5003;27971;53.902;9.118;2023-02-13T07:30:50;4.41;3.83;
41382;PMS5003;27971;53.902;9.118;2023-02-13T07:32:53;4.34;3.94;
41382;PMS5003;27971;53.902;9.118;2023-02-13T07:34:56;4.78;3.95;
41382;PMS5003;27971;53.902;9.118;2023-02-13T07:36:58;4.96;4.34;
41382;PMS5003;27971;53.902;9.118;2023-02-13T07:39:02;4.86;3.91;
41382;PMS5003;27971;53.902;9.118;2023-02-13T07:41:04;3.87;3.48;
41382;PMS5003;27971;53.902;9.118;2023-02-13T07:43:07;4.17;3.66;
41382;PMS5003;27971;53.902;9.118;2023-02-13T07:45:09;2.73;2.47;
41382;PMS5003;27971;53.902;9.118;2023-02-13T07:47:12;4.38;3.46;
41382;PMS5003;27971;53.902;9.118;2023-02-13T07:49:14;4.96;4.63;
41382;PMS5003;27971;53.902;9.118;2023-02-13T07:51:17;3.58;2.91;
41382;PMS5003;27971;53.902;9.118;2023-02-13T07:53:19;4.96;4.26;
41382;PMS5003;27971;53.902;9.118;2023-02-13T07:55:22;5.73;3.96;
41382;PMS5003;27971;53.902;9.118;2023-02-13T07:57:24;4.07;3.08;
41382;PMS5003;27971;53.902;9.118;2023-02-13T07:59:27;3.54;3.38;
41382;PMS5003;27971;53.902;9.118;2023-02-13T08:01:29;4.18;4.0;
41382;PMS5003;27971;53.902;9.118;2023-02-13T08:03:32;3.56;3.56;
41382;PMS5003;27971;53.902;9.118;2023-02-13T08:05:34;4.68;4.29;
41382;PMS5003;27971;53.902;9.118;2023-02-13T08:07:37;4.36;3.84;
41382;PMS5003;27971;53.902;9.118;2023-02-13T08:09:40;5.04;3.98;
41382;PMS5003;27971;53.902;9.118;2023-02-13T08:11:42;3.31;2.72;
41382;PMS5003;27971;53.902;9.118;2023-02-13T08:13:45;4.48;3.94;
41382;PMS5003;27971;53.902;9.118;2023-02-13T08:15:47;4.33;3.87;
41382;PMS5003;27971;53.902;9.118;2023-02-13T08:17:49;4.21;3.69;
41382;PMS5003;27971;53.902;9.118;2023-02-13T08:19:52;4.62;4.09;
41382;PMS5003;27971;53.902;9.118;2023-02-13T08:21:54;4.6;3.97;
41382;PMS5003;27971;53.902;9.118;2023-02-13T08:23:57;4.89;4.54;
41382;PMS5003;27971;53.902;9.118;2023-02-13T08:25:59;3.31;3.31;
41382;PMS5003;27971;53.902;9.118;2023-02-13T08:28:02;2.96;2.96;
41382;PMS5003;27971;53.902;9.118;2023-02-13T08:30:06;3.91;3.68;
41382;PMS5003;27971;53.902;9.118;2023-02-13T08:32:08;4.25;3.74;
41382;PMS5003;27971;53.902;9.118;2023-02-13T08:34:10;4.39;4.12;
41382;PMS5003;27971;53.902;9.118;2023-02-13T08:36:13;4.32;3.82;
41382;PMS5003;27971;53.902;9.118;2023-02-13T08:38:15;4.3;3.63;
41382;PMS5003;27971;53.902;9.118;2023-02-13T08:40:17;3.91;3.67;
41382;PMS5003;27971;53.902;9.118;2023-02-13T08:42:20;5.69;4.02;
41382;PMS5003;27971;53.902;9.118;2023-02-13T08:44:23;4.57;3.23;
41382;PMS5003;27971;53.902;9.118;2023-02-13T08:46:26;5.21;3.84;
41382;PMS5003;27971;53.902;9.118;2023-02-13T08:48:28;3.99;3.66;
41382;PMS5003;27971;53.902;9.118;2023-02-13T08:50:31;3.31;2.88;
41382;PMS5003;27971;53.902;9.118;2023-02-13T08:52:33;3.2;3.2;
41382;PMS5003;27971;53.902;9.118;2023-02-13T08:54:36;3.97;3.43;
41382;PMS5003;27971;53.902;9.118;2023-02-13T08:56:38;4.36;4.02;
41382;PMS5003;27971;53.902;9.118;2023-02-13T08:58:41;5.59;4.08;
41382;PMS5003;27971;53.902;9.118;2023-02-13T09:00:44;4.53;4.47;
41382;PMS5003;27971;53.902;9.118;2023-02-13T09:02:46;5.36;4.92;
41382;PMS5003;27971;53.902;9.118;2023-02-13T09:04:49;5.12;4.76;
41382;PMS5003;27971;53.902;9.118;2023-02-13T09:06:51;5.04;4.98;
41382;PMS5003;27971;53.902;9.118;2023-02-13T09:08:53;4.57;3.83;
41382;PMS5003;27971;53.902;9.118;2023-02-13T09:10:57;5.56;4.49;
41382;PMS5003;27971;53.902;9.118;2023-02-13T09:12:59;5.47;3.84;
41382;PMS5003;27971;53.902;9.118;2023-02-13T09:15:02;6.93;5.94;
41382;PMS5003;27971;53.902;9.118;2023-02-13T09:17:05;5.81;5.2;
41382;PMS5003;27971;53.902;9.118;2023-02-13T09:19:07;5.63;5.02;
41382;PMS5003;27971;53.902;9.118;2023-02-13T09:21:10;5.34;4.53;
41382;PMS5003;27971;53.902;9.118;2023-02-13T09:23:13;5.88;4.81;
41382;PMS5003;27971;53.902;9.118;2023-02-13T09:25:15;6.1;5.18;
41382;PMS5003;27971;53.902;9.118;2023-02-13T09:27:18;6.5;5.01;
41382;PMS5003;27971;53.902;9.118;2023-02-13T09:29:21;4.6;4.14;
41382;PMS5003;27971;53.902;9.118;2023-02-13T09:31:23;4.54;4.11;
41382;PMS5003;27971;53.902;9.118;2023-02-13T09:33:26;5.51;4.5;
41382;PMS5003;27971;53.902;9.118;2023-02-13T09:35:28;6.01;4.9;
41382;PMS5003;27971;53.902;9.118;2023-02-13T09:37:30;7.39;5.89;
41382;PMS5003;27971;53.902;9.118;2023-02-13T09:39:33;5.96;5.29;
41382;PMS5003;27971;53.902;9.118;2023-02-13T09:41:36;7.52;5.97;
41382;PMS5003;27971;53.902;9.118;2023-02-13T09:43:40;8.36;6.66;
41382;PMS5003;27971;53.902;9.118;2023-02-13T09:45:42;6.71;5.36;
41382;PMS5003;27971;53.902;9.118;2023-02-13T09:47:45;6.59;5.12;
41382;PMS5003;27971;53.902;9.118;2023-02-13T09:49:48;6.11;5.83;
41382;PMS5003;27971;53.902;9.118;2023-02-13T09:51:51;9.89;6.62;
41382;PMS5003;27971;53.902;9.118;2023-02-13T09:53:53;8.97;7.44;
41382;PMS5003;27971;53.902;9.118;2023-02-13T09:55:57;8.17;7.23;
41382;PMS5003;27971;53.902;9.118;2023-02-13T09:57:58;10.98;9.28;
41382;PMS5003;27971;53.902;9.118;2023-02-13T10:00:02;10.78;8.26;
41382;PMS5003;27971;53.902;9.118;2023-02-13T10:02:07;9.81;7.98;
41382;PMS5003;27971;53.902;9.118;2023-02-13T10:04:11;11.22;9.03;
41382;PMS5003;27971;53.902;9.118;2023-02-13T10:06:09;9.27;7.13;
41382;PMS5003;27971;53.902;9.118;2023-02-13T10:08:20;9.61;7.42;
41382;PMS5003;27971;53.902;9.118;2023-02-13T10:10:16;8.96;6.97;
41382;PMS5003;27971;53.902;9.118;2023-02-13T10:12:21;8.95;8.08;
41382;PMS5003;27971;53.902;9.118;2023-02-13T10:14:22;11.37;9.2;
41382;PMS5003;27971;53.902;9.118;2023-02-13T10:16:24;7.52;6.48;
41382;PMS5003;27971;53.902;9.118;2023-02-13T10:18:27;7.51;5.94;
41382;PMS5003;27971;53.902;9.118;2023-02-13T10:20:30;9.21;7.86;
41382;PMS5003;27971;53.902;9.118;2023-02-13T10:22:33;11.88;8.26;
41382;PMS5003;27971;53.902;9.118;2023-02-13T10:24:35;9.9;7.59;
41382;PMS5003;27971;53.902;9.118;2023-02-13T10:26:38;7.16;6.23;
41382;PMS5003;27971;53.902;9.118;2023-02-13T10:28:41;9.11;7.7;
41382;PMS5003;27971;53.902;9.118;2023-02-13T10:30:45;9.26;8.16;
41382;PMS5003;27971;53.902;9.118;2023-02-13T10:32:47;6.57;6.17;
41382;PMS5003;27971;53.902;9.118;2023-02-13T10:34:48;6.95;5.17;
41382;PMS5003;27971;53.902;9.118;2023-02-13T10:36:51;7.17;6.05;
41382;PMS5003;27971;53.902;9.118;2023-02-13T10:38:55;8.69;7.5;
41382;PMS5003;27971;53.902;9.118;2023-02-13T10:41:02;9.01;7.17;
41382;PMS5003;27971;53.902;9.118;2023-02-13T10:43:00;8.38;7.15;
41382;PMS5003;27971;53.902;9.118;2023-02-13T10:45:05;7.87;6.74;
41382;PMS5003;27971;53.902;9.118;2023-02-13T10:47:08;7.97;7.3;
41382;PMS5003;27971;53.902;9.118;2023-02-13T10:49:14;7.53;5.96;
41382;PMS5003;27971;53.902;9.118;2023-02-13T10:51:11;8.17;6.43;
41382;PMS5003;27971;53.902;9.118;2023-02-13T10:53:15;8.25;6.3;
41382;PMS5003;27971;53.902;9.118;2023-02-13T10:55:21;7.18;5.89;
41382;PMS5003;27971;53.902;9.118;2023-02-13T10:57:21;7.62;6.18;
41382;PMS5003;27971;53.902;9.118;2023-02-13T10:59:28;7.55;6.61;
41382;PMS5003;27971;53.902;9.118;2023-02-13T11:01:26;7.61;6.39;
41382;PMS5003;27971;53.902;9.118;2023-02-13T11:03:29;6.65;6.25;
41382;PMS5003;27971;53.902;9.118;2023-02-13T11:05:32;8.72;7.18;
41382;PMS5003;27971;53.902;9.118;2023-02-13T11:07:34;8.97;7.29;
41382;PMS5003;27971;53.902;9.118;2023-02-13T11:09:39;7.56;6.42;
41382;PMS5003;27971;53.902;9.118;2023-02-13T11:11:41;7.25;6.34;
41382;PMS5003;27971;53.902;9.118;2023-02-13T11:13:44;7.84;7.01;
41382;PMS5003;27971;53.902;9.118;2023-02-13T11:16:02;7.68;6.97;
41382;PMS5003;27971;53.902;9.118;2023-02-13T11:17:49;7.47;6.14;
41382;PMS5003;27971;53.902;9.118;2023-02-13T11:19:52;9.22;7.21;
41382;PMS5003;27971;53.902;9.118;2023-02-13T11:21:55;8.88;6.82;
41382;PMS5003;27971;53.902;9.118;2023-02-13T11:23:57;8.16;6.37;
41382;PMS5003;27971;53.902;9.118;2023-02-13T11:25:59;5.47;4.82;
41382;PMS5003;27971;53.902;9.118;2023-02-13T11:28:06;7.65;5.9;
41382;PMS5003;27971;53.902;9.118;2023-02-13T11:30:05;8.79;7.48;
41382;PMS5003;27971;53.902;9.118;2023-02-13T11:32:17;8.03;5.82;
41382;PMS5003;27971;53.902;9.118;2023-02-13T11:34:21;6.03;5.22;
41382;PMS5003;27971;53.902;9.118;2023-02-13T11:36:13;8.14;5.72;
41382;PMS5003;27971;53.902;9.118;2023-02-13T11:38:19;7.62;5.64;
41382;PMS5003;27971;53.902;9.118;2023-02-13T11:40:27;7.43;6.44;
41382;PMS5003;27971;53.902;9.118;2023-02-13T11:42:21;7.65;6.26;
41382;PMS5003;27971;53.902;9.118;2023-02-13T11:44:24;7.85;6.91;
41382;PMS5003;27971;53.902;9.118;2023-02-13T11:46:25;6.66;5.62;
41382;PMS5003;27971;53.902;9.118;2023-02-13T11:48:27;7.32;6.38;
41382;PMS5003;27971;53.902;9.118;2023-02-13T11:50:30;7.89;5.87;
41382;PMS5003;27971;53.902;9.118;2023-02-13T11:52:33;8.42;5.91;
41382;PMS5003;27971;53.902;9.118;2023-02-13T11:54:36;6.12;5.36;
41382;PMS5003;27971;53.902;9.118;2023-02-13T11:56:46;8.34;7.15;
41382;PMS5003;27971;53.902;9.118;2023-02-13T11:58:41;6.98;5.83;
41382;PMS5003;27971;53.902;9.118;2023-02-13T12:00:44;7.13;6.0;
41382;PMS5003;27971;53.902;9.118;2023-02-13T12:02:47;7.14;6.74;
41382;PMS5003;27971;53.902;9.118;2023-02-13T12:04:49;6.85;5.98;
41382;PMS5003;27971;53.902;9.118;2023-02-13T12:06:57;7.81;6.74;
41382;PMS5003;27971;53.902;9.118;2023-02-13T12:08:54;7.98;6.73;
41382;PMS5003;27971;53.902;9.118;2023-02-13T12:10:57;6.62;6.11;
41382;PMS5003;27971;53.902;9.118;2023-02-13T12:13:01;6.8;6.04;
41382;PMS5003;27971;53.902;9.118;2023-02-13T12:15:09;7.45;6.43;
41382;PMS5003;27971;53.902;9.118;2023-02-13T12:17:06;7.06;5.83;
41382;PMS5003;27971;53.902;9.118;2023-02-13T12:19:10;6.24;5.14;
41382;PMS5003;27971;53.902;9.118;2023-02-13T12:21:14;6.52;5.03;
41382;PMS5003;27971;53.902;9.118;2023-02-13T12:23:18;6.51;4.61;
41382;PMS5003;27971;53.902;9.118;2023-02-13T12:25:20;6.03;5.09;
41382;PMS5003;27971;53.902;9.118;2023-02-13T12:27:21;7.13;5.97;
41382;PMS5003;27971;53.902;9.118;2023-02-13T12:29:27;6.0;5.32;
41382;PMS5003;27971;53.902;9.118;2023-02-13T12:31:28;5.94;4.94;
41382;PMS5003;27971;53.902;9.118;2023-02-13T12:33:35;5.91;4.91;
41382;PMS5003;27971;53.902;9.118;2023-02-13T12:35:33;6.55;4.74;
41382;PMS5003;27971;53.902;9.118;2023-02-13T12:38:06;8.26;6.11;
41382;PMS5003;27971;53.902;9.118;2023-02-13T12:39:35;6.28;5.83;
41382;PMS5003;27971;53.902;9.118;2023-02-13T12:41:38;5.56;5.2;
41382;PMS5003;27971;53.902;9.118;2023-02-13T12:43:49;6.39;5.46;
41382;PMS5003;27971;53.902;9.118;2023-02-13T12:45:43;7.12;6.41;
41382;PMS5003;27971;53.902;9.118;2023-02-13T12:47:50;7.34;6.07;
41382;PMS5003;27971;53.902;9.118;2023-02-13T12:49:53;6.6;5.9;